Time;durP1;ratioP1;P1;durP2;ratioP2;P2;SDS_P1;SDS_P2;PMS_P1;PMS_P2;Temp;Humidity;BMP_temperature;BMP_pressure;BME280_temperature;BME280_humidity;BME280_pressure;Samples;Min_cycle;Max_cycle;Signal;HPM_P1;HPM_P2
2023/03/31 00:00:59;;;;;;;3.10;1.45;;;15.20;71.30;;;;;;4967799;28;20142;-86
2023/03/31 00:03:26;;;;;;;3.65;1.45;;;15.10;71.10;;;;;;4970721;28;20104;-88
2023/03/31 00:05:57;;;;;;;4.25;2.20;;;15.10;71.10;;;;;;4964346;28;20023;-88
2023/03/31 00:08:24;;;;;;;4.00;1.80;;;15.10;71.10;;;;;;4984826;28;20580;-88
2023/03/31 00:10:50;;;;;;;4.63;1.73;;;15.10;71.10;;;;;;4971822;28;20038;-90
2023/03/31 00:13:16;;;;;;;6.70;2.65;;;15.00;71.00;;;;;;4985903;28;20050;-89
2023/03/31 00:15:43;;;;;;;3.63;1.40;;;15.00;71.00;;;;;;4967340;28;20038;-87
2023/03/31 00:18:09;;;;;;;3.45;1.50;;;15.00;71.10;;;;;;4970758;28;20039;-87
2023/03/31 00:20:37;;;;;;;5.50;1.75;;;15.00;71.10;;;;;;4970348;28;20385;-86
2023/03/31 00:23:09;;;;;;;4.55;1.58;;;15.00;71.10;;;;;;4970323;28;20409;-87
2023/03/31 00:25:39;;;;;;;4.13;1.67;;;15.00;71.20;;;;;;4968951;28;20081;-88
2023/03/31 00:28:05;;;;;;;6.88;1.75;;;15.00;71.20;;;;;;4968050;28;20023;-86
2023/03/31 00:30:31;;;;;;;4.70;1.55;;;14.90;71.00;;;;;;4979258;28;20026;-85
2023/03/31 00:33:00;;;;;;;6.13;1.80;;;14.90;71.10;;;;;;4970510;28;20439;-85
2023/03/31 00:35:26;;;;;;;6.05;2.30;;;14.90;71.10;;;;;;4969179;28;20037;-86
2023/03/31 00:37:52;;;;;;;7.70;2.03;;;14.90;71.10;;;;;;4989527;28;20031;-86
2023/03/31 00:40:19;;;;;;;4.95;1.65;;;14.80;71.00;;;;;;4983215;28;20141;-85
2023/03/31 00:42:45;;;;;;;6.40;2.47;;;14.90;71.20;;;;;;4983106;28;20106;-84
2023/03/31 00:45:14;;;;;;;4.93;1.50;;;14.80;71.00;;;;;;4959717;28;20019;-86
2023/03/31 00:48:08;;;;;;;4.38;2.17;;;14.80;71.10;;;;;;4968329;28;20043;-86
2023/03/31 00:50:40;;;;;;;7.38;2.33;;;14.80;71.10;;;;;;4971996;28;20045;-86
2023/03/31 00:53:13;;;;;;;6.90;2.30;;;14.80;71.10;;;;;;4963321;28;20046;-84
2023/03/31 00:55:42;;;;;;;;;;;14.80;71.20;;;;;;4984698;28;20041;-87
2023/03/31 00:58:13;;;;;;;12.63;3.30;;;14.80;71.20;;;;;;4964140;28;19913;-85
2023/03/31 01:00:40;;;;;;;6.90;1.90;;;14.70;70.90;;;;;;4982651;28;20027;-84
2023/03/31 01:03:08;;;;;;;7.07;2.55;;;14.70;71.00;;;;;;4983179;28;20102;-84
2023/03/31 01:05:38;;;;;;;7.40;3.03;;;14.70;71.00;;;;;;4983384;28;20378;-85
2023/03/31 01:08:05;;;;;;;7.45;2.33;;;14.70;71.10;;;;;;4966684;28;20526;-84
2023/03/31 01:10:40;;;;;;;7.30;2.70;;;14.70;71.10;;;;;;4968054;28;20287;-86
2023/03/31 01:13:09;;;;;;;8.00;2.50;;;14.70;71.20;;;;;;4969619;28;20034;-86
2023/03/31 01:15:36;;;;;;;10.95;3.08;;;14.70;71.30;;;;;;4966667;28;20424;-86
2023/03/31 01:18:05;;;;;;;8.93;2.15;;;14.70;71.30;;;;;;4972143;28;20058;-86
2023/03/31 01:21:02;;;;;;;6.85;2.03;;;14.70;71.30;;;;;;4986625;28;20034;-86
2023/03/31 01:24:12;;;;;;;8.25;2.17;;;14.70;71.40;;;;;;4968917;28;20513;-84
2023/03/31 01:27:14;;;;;;;5.65;1.85;;;14.70;71.40;;;;;;4937210;28;20406;-87
2023/03/31 01:30:06;;;;;;;10.45;2.50;;;14.60;71.30;;;;;;4980768;28;20035;-87
2023/03/31 01:32:54;;;;;;;8.68;2.13;;;14.60;71.20;;;;;;4975736;28;20031;-86
2023/03/31 01:35:45;;;;;;;7.40;2.10;;;14.60;71.30;;;;;;4968919;28;20401;-86
2023/03/31 01:38:33;;;;;;;;;;;14.60;71.30;;;;;;4987139;28;20030;-85
2023/03/31 01:41:25;;;;;;;5.85;2.08;;;14.60;71.20;;;;;;4983473;28;19936;-85
2023/03/31 01:44:00;;;;;;;8.93;2.45;;;14.60;71.10;;;;;;4985340;28;20078;-86
2023/03/31 01:47:01;;;;;;;8.80;2.60;;;14.60;71.20;;;;;;4963335;28;20046;-88
2023/03/31 01:49:40;;;;;;;9.43;2.58;;;14.60;71.30;;;;;;4973055;28;20046;-89
2023/03/31 01:52:27;;;;;;;9.18;3.25;;;14.60;71.30;;;;;;4968973;28;20031;-88
2023/03/31 01:55:25;;;;;;;12.70;3.95;;;14.60;71.30;;;;;;4988139;28;20106;-88
2023/03/31 01:58:27;;;;;;;12.80;3.05;;;14.60;71.30;;;;;;4979840;28;20042;-86
2023/03/31 02:01:25;;;;;;;12.80;4.50;;;14.60;71.40;;;;;;4972322;28;20065;-88
2023/03/31 02:04:16;;;;;;;11.38;4.35;;;14.50;71.20;;;;;;4974818;28;20516;-86
2023/03/31 02:06:48;;;;;;;12.68;3.38;;;14.50;71.20;;;;;;4989517;28;20050;-87
2023/03/31 02:09:18;;;;;;;;;;;14.50;71.20;;;;;;4976879;28;20097;-89
2023/03/31 02:11:46;;;;;;;9.85;3.45;;;14.50;71.20;;;;;;4972095;28;19910;-85
2023/03/31 02:14:17;;;;;;;10.57;3.20;;;14.50;71.10;;;;;;4975804;28;20243;-86
2023/03/31 02:16:46;;;;;;;10.45;2.67;;;14.50;71.20;;;;;;4992109;28;20441;-87
2023/03/31 02:19:17;;;;;;;12.95;3.28;;;14.40;71.10;;;;;;4979473;28;20060;-87
2023/03/31 02:21:48;;;;;;;7.70;2.45;;;14.50;71.30;;;;;;5008019;28;20019;-86
2023/03/31 02:24:18;;;;;;;12.27;3.75;;;14.40;71.20;;;;;;5012476;28;20030;-87
2023/03/31 02:26:53;;;;;;;10.25;3.90;;;14.40;71.20;;;;;;4990776;28;20023;-87
2023/03/31 02:29:21;;;;;;;11.00;3.35;;;14.40;71.30;;;;;;4997106;28;20030;-86
2023/03/31 02:32:14;;;;;;;8.13;2.80;;;14.40;71.30;;;;;;4989705;28;20045;-87
2023/03/31 02:34:40;;;;;;;9.88;2.47;;;14.40;71.30;;;;;;5008202;28;20046;-86
2023/03/31 02:37:07;;;;;;;15.40;5.75;;;14.40;71.30;;;;;;4994267;28;20439;-86
2023/03/31 02:39:35;;;;;;;15.25;3.90;;;14.40;71.30;;;;;;4977862;28;20037;-86
2023/03/31 02:42:06;;;;;;;13.35;2.78;;;14.40;71.40;;;;;;4977591;28;20023;-85
2023/03/31 02:44:36;;;;;;;9.80;3.10;;;14.30;71.20;;;;;;4991851;28;20103;-87
2023/03/31 02:47:04;;;;;;;11.95;3.38;;;14.30;71.30;;;;;;4977085;28;20261;-86
2023/03/31 02:49:32;;;;;;;10.00;2.65;;;14.30;71.30;;;;;;4985781;28;20156;-88
2023/03/31 02:52:17;;;;;;;8.57;2.53;;;14.30;71.30;;;;;;4982939;28;20271;-89
2023/03/31 02:54:50;;;;;;;8.23;2.13;;;14.30;71.30;;;;;;4981147;28;20050;-86
2023/03/31 02:57:45;;;;;;;8.23;2.28;;;14.30;71.30;;;;;;4988291;28;20162;-87
2023/03/31 03:00:49;;;;;;;8.13;2.53;;;14.30;71.30;;;;;;4973943;28;20031;-87
2023/03/31 03:03:43;;;;;;;8.55;2.65;;;14.30;71.30;;;;;;4987893;28;20027;-88
2023/03/31 03:06:17;;;;;;;6.20;2.13;;;14.30;71.30;;;;;;4990572;28;20126;-87
2023/03/31 03:09:07;;;;;;;8.43;2.33;;;14.30;71.30;;;;;;4974136;28;20217;-87
2023/03/31 03:11:41;;;;;;;6.68;1.90;;;14.20;71.10;;;;;;4982585;28;20047;-87
2023/03/31 03:14:42;;;;;;;4.68;1.75;;;14.20;71.20;;;;;;4993922;28;20494;-87
2023/03/31 03:17:13;;;;;;;8.48;2.92;;;14.20;71.20;;;;;;4972868;28;20043;-87
2023/03/31 03:19:42;;;;;;;7.20;2.35;;;14.20;71.20;;;;;;4975359;28;20046;-88
2023/03/31 03:22:09;;;;;;;5.85;1.90;;;14.20;71.20;;;;;;4990566;28;20030;-88
2023/03/31 03:24:35;;;;;;;4.95;2.00;;;14.20;71.20;;;;;;4974504;28;20030;-87
2023/03/31 03:27:01;;;;;;;7.00;2.20;;;14.10;71.10;;;;;;4969158;28;20046;-87
2023/03/31 03:29:27;;;;;;;7.82;2.67;;;14.10;71.10;;;;;;4983367;28;20034;-88
2023/03/31 03:31:53;;;;;;;4.93;1.92;;;14.10;71.20;;;;;;4952239;28;20190;-88
2023/03/31 03:34:19;;;;;;;6.38;2.10;;;14.10;71.20;;;;;;4974330;28;20041;-89
2023/03/31 03:36:45;;;;;;;5.32;1.85;;;14.10;71.20;;;;;;4963249;28;20030;-87
2023/03/31 03:39:12;;;;;;;6.40;2.40;;;14.10;71.20;;;;;;4989214;28;20039;-87
2023/03/31 03:41:39;;;;;;;9.05;2.92;;;14.10;71.30;;;;;;4971174;28;20129;-88
2023/03/31 03:44:05;;;;;;;7.20;2.10;;;14.10;71.30;;;;;;4969416;28;20101;-87
2023/03/31 03:46:31;;;;;;;4.10;1.45;;;14.10;71.30;;;;;;4975174;28;20063;-88
2023/03/31 03:48:57;;;;;;;6.07;1.90;;;14.10;71.30;;;;;;4969694;28;20054;-88
2023/03/31 03:51:23;;;;;;;4.55;1.45;;;14.10;71.40;;;;;;4982745;28;20023;-87
2023/03/31 03:53:49;;;;;;;6.70;2.08;;;14.10;71.40;;;;;;4989107;28;20125;-87
2023/03/31 03:56:15;;;;;;;4.72;1.63;;;14.10;71.40;;;;;;4975377;28;20090;-89
2023/03/31 03:58:41;;;;;;;4.50;2.03;;;14.10;71.40;;;;;;4966995;28;20074;-89
2023/03/31 04:01:07;;;;;;;10.45;2.90;;;14.10;71.40;;;;;;4973478;28;20035;-88
2023/03/31 04:03:33;;;;;;;8.57;1.95;;;14.10;71.40;;;;;;4965465;28;20035;-87
2023/03/31 04:05:59;;;;;;;6.30;1.85;;;14.10;71.40;;;;;;4974618;28;20418;-89
2023/03/31 04:08:26;;;;;;;7.10;1.55;;;14.10;71.40;;;;;;4973778;28;20355;-87
2023/03/31 04:10:52;;;;;;;5.55;1.88;;;14.00;71.20;;;;;;4969184;28;20097;-87
2023/03/31 04:13:19;;;;;;;7.18;2.38;;;14.00;71.20;;;;;;4986693;28;20046;-86
2023/03/31 04:15:45;;;;;;;5.68;1.77;;;14.00;71.30;;;;;;4983108;28;20479;-86
2023/03/31 04:18:21;;;;;;;7.78;2.55;;;14.00;71.30;;;;;;4969422;28;20178;-86
2023/03/31 04:20:53;;;;;;;5.90;1.35;;;14.00;71.40;;;;;;4966699;28;20035;-86
2023/03/31 04:23:25;;;;;;;5.63;1.98;;;14.00;71.40;;;;;;4971741;28;20447;-85
2023/03/31 04:25:51;;;;;;;5.05;1.60;;;14.00;71.40;;;;;;4974776;28;20090;-87
2023/03/31 04:28:18;;;;;;;6.50;1.90;;;13.90;71.20;;;;;;4974746;28;20077;-86
2023/03/31 04:30:45;;;;;;;5.60;2.28;;;13.90;71.30;;;;;;4994178;28;20045;-87
2023/03/31 04:33:14;;;;;;;7.65;2.40;;;14.00;71.50;;;;;;4980071;28;20050;-87
2023/03/31 04:35:51;;;;;;;8.23;2.05;;;14.00;71.50;;;;;;4989673;28;20041;-88
2023/03/31 04:38:19;;;;;;;5.15;1.92;;;13.90;71.30;;;;;;4982083;28;20120;-87
2023/03/31 04:40:47;;;;;;;8.77;1.55;;;13.90;71.30;;;;;;4987454;28;20043;-87
2023/03/31 04:43:15;;;;;;;5.28;1.95;;;13.90;71.40;;;;;;4972119;28;20406;-88
2023/03/31 04:45:41;;;;;;;5.57;1.98;;;13.90;71.40;;;;;;4973912;28;20180;-87
2023/03/31 04:48:08;;;;;;;5.88;2.03;;;13.90;71.40;;;;;;4971469;28;20155;-89
2023/03/31 04:50:34;;;;;;;6.10;1.73;;;13.90;71.50;;;;;;4972371;28;20026;-88
2023/03/31 04:53:02;;;;;;;6.30;1.60;;;13.90;71.40;;;;;;4969615;28;20031;-88
2023/03/31 04:55:29;;;;;;;6.15;1.75;;;13.90;71.40;;;;;;4971712;28;20039;-90
2023/03/31 04:57:56;;;;;;;4.90;1.80;;;13.90;71.40;;;;;;4970581;28;20034;-87
2023/03/31 05:00:23;;;;;;;4.78;2.35;;;13.90;71.50;;;;;;4974485;28;20425;-88
2023/03/31 05:02:50;;;;;;;4.50;1.60;;;13.90;71.50;;;;;;4981484;28;20082;-90
2023/03/31 05:05:16;;;;;;;3.97;1.33;;;13.90;71.50;;;;;;4986839;28;20449;-88
2023/03/31 05:07:42;;;;;;;6.47;2.47;;;13.90;71.50;;;;;;4969907;28;20499;-88
2023/03/31 05:10:09;;;;;;;3.70;1.52;;;13.90;71.50;;;;;;4971210;28;20046;-91
2023/03/31 05:12:36;;;;;;;4.95;1.30;;;13.90;71.50;;;;;;4971370;28;20087;-93
2023/03/31 05:15:04;;;;;;;5.07;1.50;;;13.90;71.50;;;;;;4987684;28;20039;-94
2023/03/31 05:17:35;;;;;;;4.65;1.77;;;13.90;71.50;;;;;;4989146;28;20188;-96
2023/03/31 05:20:04;;;;;;;5.13;1.42;;;13.90;71.60;;;;;;4970500;28;20018;-94
2023/03/31 05:22:34;;;;;;;5.95;1.80;;;13.90;71.60;;;;;;4970153;28;20019;-88
2023/03/31 05:25:02;;;;;;;6.85;2.20;;;13.90;71.60;;;;;;4966319;28;20026;-89
2023/03/31 05:27:28;;;;;;;6.22;1.42;;;13.80;71.40;;;;;;4983831;28;20146;-86
2023/03/31 05:29:54;;;;;;;5.32;1.30;;;13.80;71.50;;;;;;4962927;28;20142;-84
2023/03/31 05:32:20;;;;;;;4.22;1.05;;;13.80;71.50;;;;;;4966453;28;20034;-85
2023/03/31 05:34:47;;;;;;;3.33;1.35;;;13.80;71.50;;;;;;4969382;28;20086;-86
2023/03/31 05:37:13;;;;;;;5.22;1.40;;;13.80;71.50;;;;;;4962538;28;20027;-88
2023/03/31 05:39:39;;;;;;;5.45;1.40;;;13.80;71.50;;;;;;4965337;28;20534;-86
2023/03/31 05:42:08;;;;;;;4.80;1.55;;;13.80;71.60;;;;;;4961125;28;20098;-88
2023/03/31 05:44:34;;;;;;;5.50;1.92;;;13.70;71.40;;;;;;4962048;28;20112;-83
2023/03/31 05:47:01;;;;;;;6.78;1.65;;;13.70;71.40;;;;;;4966910;28;20050;-87
2023/03/31 05:49:27;;;;;;;4.22;1.40;;;13.80;71.60;;;;;;4964566;28;20027;-86
2023/03/31 05:51:53;;;;;;;6.97;2.00;;;13.70;71.40;;;;;;4963480;28;20616;-84
2023/03/31 05:54:19;;;;;;;4.28;1.48;;;13.70;71.50;;;;;;4966723;28;20537;-87
2023/03/31 05:56:45;;;;;;;4.85;1.50;;;13.70;71.50;;;;;;4972376;28;20035;-88
2023/03/31 05:59:11;;;;;;;4.82;1.45;;;13.70;71.60;;;;;;4980699;28;20030;-85
2023/03/31 06:01:40;;;;;;;7.22;1.73;;;13.80;72.10;;;;;;4967298;28;20039;-85
2023/03/31 06:04:06;;;;;;;6.07;2.10;;;13.80;72.20;;;;;;4966314;28;20042;-84
2023/03/31 06:06:33;;;;;;;7.53;1.95;;;13.80;72.20;;;;;;4968005;28;20054;-84
2023/03/31 06:08:59;;;;;;;4.38;1.40;;;13.80;72.20;;;;;;4983397;28;20046;-86
2023/03/31 06:11:26;;;;;;;4.70;1.92;;;13.80;72.20;;;;;;4965114;28;20376;-84
2023/03/31 06:13:52;;;;;;;13.35;2.60;;;13.80;72.30;;;;;;4964510;28;20046;-90
2023/03/31 06:16:19;;;;;;;7.78;2.55;;;13.80;72.80;;;;;;4975257;28;20042;-88
2023/03/31 06:18:45;;;;;;;6.90;3.55;;;13.80;73.20;;;;;;4970543;28;20043;-93
2023/03/31 06:21:15;;;;;;;6.63;1.67;;;14.00;74.20;;;;;;4967061;28;20082;-88
2023/03/31 06:23:43;;;;;;;8.45;2.30;;;14.10;74.80;;;;;;4984907;28;20030;-90
2023/03/31 06:26:14;;;;;;;11.02;3.05;;;14.20;75.00;;;;;;4967556;28;20026;-91
2023/03/31 06:28:40;;;;;;;8.70;2.60;;;14.30;75.10;;;;;;4972060;28;20049;-92
2023/03/31 06:31:16;;;;;;;7.25;2.65;;;14.40;75.00;;;;;;4972949;28;20046;-96
2023/03/31 06:34:00;;;;;;;12.68;3.20;;;14.30;74.70;;;;;;4988476;28;20047;-90
2023/03/31 06:36:26;;;;;;;5.43;2.08;;;14.30;74.60;;;;;;4963275;28;20027;-87
2023/03/31 06:38:52;;;;;;;8.18;2.90;;;14.30;74.60;;;;;;4966663;28;20431;-88
2023/03/31 06:41:21;;;;;;;10.77;3.05;;;14.30;74.50;;;;;;4981487;28;20478;-88
2023/03/31 06:43:47;;;;;;;9.30;2.10;;;14.20;74.20;;;;;;4959574;28;20047;-92
2023/03/31 06:46:14;;;;;;;8.38;2.58;;;14.20;74.20;;;;;;4969433;28;20109;-89
2023/03/31 06:48:41;;;;;;;6.88;3.13;;;14.20;74.10;;;;;;4972910;28;20102;-92
2023/03/31 06:51:10;;;;;;;10.00;2.85;;;14.20;74.10;;;;;;4967826;28;20198;-88
2023/03/31 06:53:36;;;;;;;8.48;2.75;;;14.20;74.00;;;;;;4982426;28;20054;-89
2023/03/31 06:56:04;;;;;;;12.05;2.75;;;14.10;73.80;;;;;;4967506;28;20031;-88
2023/03/31 06:58:32;;;;;;;10.10;2.30;;;14.10;73.80;;;;;;4967343;28;20030;-88
2023/03/31 07:01:00;;;;;;;8.70;1.65;;;14.10;73.70;;;;;;4970834;28;20022;-88
2023/03/31 07:03:28;;;;;;;6.43;2.15;;;14.10;73.70;;;;;;4985783;28;20035;-88
2023/03/31 07:05:54;;;;;;;7.88;2.15;;;14.10;73.60;;;;;;4986835;28;20059;-87
2023/03/31 07:08:21;;;;;;;7.18;2.30;;;14.10;73.70;;;;;;4968453;28;20045;-85
2023/03/31 07:10:49;;;;;;;9.88;2.92;;;14.10;73.80;;;;;;4970077;28;20414;-84
2023/03/31 07:13:15;;;;;;;10.93;2.72;;;14.10;73.90;;;;;;4990166;28;20049;-85
2023/03/31 07:15:41;;;;;;;12.55;2.88;;;14.10;74.00;;;;;;4965501;28;20039;-87
2023/03/31 07:18:08;;;;;;;10.10;3.10;;;14.10;74.00;;;;;;4977651;28;20110;-88
2023/03/31 07:20:35;;;;;;;10.88;2.33;;;14.20;74.20;;;;;;4978273;28;20035;-86
2023/03/31 07:23:04;;;;;;;6.35;2.28;;;14.20;74.20;;;;;;4970665;28;20117;-87
2023/03/31 07:25:34;;;;;;;9.73;2.88;;;14.20;74.20;;;;;;4970777;28;20402;-86
2023/03/31 07:28:02;;;;;;;9.55;2.63;;;14.30;74.30;;;;;;4977256;28;20108;-86
2023/03/31 07:30:29;;;;;;;7.00;1.88;;;14.30;74.20;;;;;;4972481;28;20108;-82
2023/03/31 07:32:55;;;;;;;7.93;1.88;;;14.40;74.40;;;;;;4967606;28;20031;-88
2023/03/31 07:35:21;;;;;;;6.95;1.88;;;14.40;74.40;;;;;;4972958;28;20042;-90
2023/03/31 07:37:49;;;;;;;7.65;2.08;;;14.40;74.40;;;;;;4974082;28;20640;-83
2023/03/31 07:40:19;;;;;;;6.35;1.73;;;14.40;74.50;;;;;;4978059;28;20302;-85
2023/03/31 07:42:50;;;;;;;6.57;2.10;;;14.40;74.50;;;;;;5001772;28;20023;-85
2023/03/31 07:45:21;;;;;;;7.25;1.88;;;14.40;74.50;;;;;;4981507;28;20030;-85
2023/03/31 07:47:47;;;;;;;4.47;1.67;;;14.40;74.50;;;;;;4985143;28;20115;-83
2023/03/31 07:50:15;;;;;;;6.80;2.22;;;14.40;74.50;;;;;;4988984;28;20070;-84
2023/03/31 07:52:41;;;;;;;8.02;2.92;;;14.50;74.70;;;;;;4999949;28;20184;-83
2023/03/31 07:55:08;;;;;;;6.80;2.92;;;14.50;74.60;;;;;;4973370;28;20152;-84
2023/03/31 07:57:35;;;;;;;5.53;2.10;;;14.50;74.70;;;;;;4971524;28;20354;-87
2023/03/31 08:00:07;;;;;;;8.07;2.33;;;14.50;74.60;;;;;;4972290;28;20093;-87
2023/03/31 08:02:44;;;;;;;5.50;1.80;;;14.50;74.60;;;;;;4973250;28;20038;-86
2023/03/31 08:05:12;;;;;;;6.32;2.35;;;14.60;74.70;;;;;;4957601;28;20035;-86
2023/03/31 08:07:41;;;;;;;8.23;1.95;;;14.60;74.70;;;;;;4969699;28;20533;-83
2023/03/31 08:10:09;;;;;;;8.65;2.50;;;14.50;74.50;;;;;;4969669;28;20031;-81
2023/03/31 08:12:35;;;;;;;5.85;2.33;;;14.50;74.50;;;;;;4969180;28;20125;-85
2023/03/31 08:15:03;;;;;;;8.68;2.03;;;14.50;74.50;;;;;;4985057;28;20043;-87
2023/03/31 08:17:29;;;;;;;5.72;2.20;;;14.60;74.80;;;;;;4968545;28;20030;-87
2023/03/31 08:19:57;;;;;;;6.57;2.15;;;14.60;74.80;;;;;;4970425;28;20034;-92
2023/03/31 08:22:22;;;;;;;7.78;2.05;;;14.60;74.80;;;;;;4952008;28;20470;-83
2023/03/31 08:24:48;;;;;;;6.07;2.13;;;14.60;74.80;;;;;;4969508;28;20035;-84
2023/03/31 08:27:15;;;;;;;7.03;1.80;;;14.70;74.90;;;;;;4958652;28;20113;-85
2023/03/31 08:29:41;;;;;;;6.72;2.20;;;14.70;75.40;;;;;;4965912;28;20042;-79
2023/03/31 08:32:07;;;;;;;6.30;2.30;;;14.80;75.10;;;;;;4981887;28;20027;-80
2023/03/31 08:34:35;;;;;;;8.50;2.60;;;14.90;75.10;;;;;;4968920;28;20461;-85
2023/03/31 08:37:01;;;;;;;6.00;2.13;;;15.00;75.10;;;;;;4982689;28;20066;-83
2023/03/31 08:39:27;;;;;;;7.13;2.42;;;15.10;75.00;;;;;;4967246;28;20573;-85
2023/03/31 08:41:58;;;;;;;6.20;2.20;;;15.30;75.00;;;;;;4968823;28;20031;-84
2023/03/31 08:44:39;;;;;;;6.95;2.00;;;15.40;74.80;;;;;;4966546;28;20361;-84
2023/03/31 08:47:12;;;;;;;4.88;1.83;;;15.60;74.80;;;;;;4983349;28;20129;-83
2023/03/31 08:49:57;;;;;;;9.80;2.78;;;15.70;74.60;;;;;;4965830;28;20228;-83
2023/03/31 08:52:28;;;;;;;6.72;2.67;;;15.90;74.70;;;;;;4972714;28;20119;-83
2023/03/31 08:55:19;;;;;;;4.88;2.22;;;16.00;74.50;;;;;;4971761;28;20201;-83
2023/03/31 08:58:11;;;;;;;7.63;2.75;;;16.10;74.60;;;;;;4980600;28;20483;-83
2023/03/31 09:00:47;;;;;;;4.53;2.42;;;16.20;74.10;;;;;;4962754;28;20065;-82
2023/03/31 09:03:42;;;;;;;4.82;2.58;;;16.30;74.00;;;;;;4960535;28;20031;-83
2023/03/31 09:06:15;;;;;;;7.07;2.25;;;16.50;74.10;;;;;;4966103;28;20041;-81
2023/03/31 09:08:41;;;;;;;6.05;2.53;;;16.60;73.90;;;;;;4965228;28;20027;-81
2023/03/31 09:11:19;;;;;;;4.32;2.67;;;16.70;73.80;;;;;;4979243;28;20045;-81
2023/03/31 09:14:00;;;;;;;5.97;2.65;;;16.80;73.70;;;;;;4964351;28;20047;-84
2023/03/31 09:16:31;;;;;;;4.72;2.00;;;16.90;73.60;;;;;;4983432;28;20133;-86
2023/03/31 09:19:00;;;;;;;5.22;2.40;;;17.00;73.40;;;;;;4963832;28;20031;-84
2023/03/31 09:21:34;;;;;;;7.35;1.92;;;17.20;73.50;;;;;;4966821;28;20059;-81
2023/03/31 09:24:04;;;;;;;5.07;1.83;;;17.20;73.20;;;;;;4965181;28;20078;-83
2023/03/31 09:26:55;;;;;;;5.30;1.98;;;17.30;73.10;;;;;;4976201;28;20102;-86
2023/03/31 09:29:33;;;;;;;5.78;2.25;;;17.40;73.00;;;;;;4965485;28;20042;-85
2023/03/31 09:32:15;;;;;;;6.88;2.70;;;17.50;72.90;;;;;;4979755;28;20043;-87
2023/03/31 09:34:44;;;;;;;2.60;1.67;;;17.50;72.60;;;;;;4980668;28;20039;-90
2023/03/31 09:37:11;;;;;;;6.85;1.85;;;17.60;72.70;;;;;;4976200;28;20038;-88
2023/03/31 09:39:40;;;;;;;3.50;1.40;;;17.70;72.70;;;;;;4976680;28;20039;-88
2023/03/31 09:42:09;;;;;;;4.05;1.50;;;17.80;72.60;;;;;;4967476;28;20058;-85
2023/03/31 09:44:41;;;;;;;4.45;1.85;;;17.90;72.40;;;;;;4981994;28;20355;-83
2023/03/31 09:47:26;;;;;;;2.90;1.35;;;18.00;72.30;;;;;;4967079;28;20486;-83
2023/03/31 09:49:52;;;;;;;5.28;2.20;;;18.10;72.20;;;;;;4966591;28;20037;-86
2023/03/31 09:52:33;;;;;;;2.95;1.40;;;18.10;72.00;;;;;;4963048;28;20053;-83
2023/03/31 09:55:12;;;;;;;2.58;1.33;;;18.20;71.90;;;;;;4965177;28;20053;-83
2023/03/31 09:57:39;;;;;;;3.95;1.48;;;18.20;71.80;;;;;;4963948;28;20126;-82
2023/03/31 10:00:15;;;;;;;3.20;1.20;;;18.30;71.80;;;;;;4961435;28;20031;-82
2023/03/31 10:03:06;;;;;;;2.85;1.25;;;18.30;71.50;;;;;;4963727;28;20027;-84
2023/03/31 10:05:31;;;;;;;3.25;1.77;;;18.30;71.20;;;;;;4964339;28;20576;-80
2023/03/31 10:08:16;;;;;;;4.28;1.83;;;18.30;71.30;;;;;;4980232;28;20019;-83
2023/03/31 10:11:07;;;;;;;2.70;1.17;;;18.30;71.10;;;;;;4963734;28;20431;-82
2023/03/31 10:13:41;;;;;;;3.70;1.98;;;18.30;71.10;;;;;;4969154;28;20329;-84
2023/03/31 10:16:12;;;;;;;6.45;1.55;;;18.30;71.10;;;;;;4978319;28;20085;-82
2023/03/31 10:18:47;;;;;;;4.00;1.30;;;18.30;70.90;;;;;;4962815;28;20038;-85
2023/03/31 10:21:26;;;;;;;5.00;1.23;;;18.40;70.90;;;;;;4964087;28;20045;-85
2023/03/31 10:23:58;;;;;;;2.08;1.00;;;18.40;70.70;;;;;;4979810;28;20366;-84
2023/03/31 10:26:27;;;;;;;5.65;1.75;;;18.50;70.70;;;;;;4965243;28;20042;-83
2023/03/31 10:28:54;;;;;;;2.35;1.00;;;18.50;70.50;;;;;;4965694;28;20215;-84
2023/03/31 10:31:35;;;;;;;2.90;1.10;;;18.70;70.60;;;;;;4963342;28;20078;-84
2023/03/31 10:34:11;;;;;;;3.45;1.30;;;18.80;70.20;;;;;;4966092;28;20047;-83
2023/03/31 10:36:46;;;;;;;3.00;1.30;;;19.00;70.10;;;;;;4967945;28;20073;-82
2023/03/31 10:39:17;;;;;;;2.80;1.48;;;19.20;70.10;;;;;;4966445;28;20539;-83
2023/03/31 10:41:52;;;;;;;2.00;0.93;;;19.30;69.80;;;;;;4972644;28;20486;-84
2023/03/31 10:44:31;;;;;;;2.25;1.20;;;19.60;69.80;;;;;;4967473;28;20041;-83
2023/03/31 10:47:16;;;;;;;5.50;1.73;;;19.70;69.30;;;;;;4959862;28;20122;-83
2023/03/31 10:49:43;;;;;;;2.72;1.20;;;19.80;69.20;;;;;;4959199;28;20039;-84
2023/03/31 10:52:22;;;;;;;3.25;1.15;;;19.70;69.10;;;;;;4948730;29;20066;-84
2023/03/31 10:55:11;;;;;;;2.42;1.10;;;19.80;69.00;;;;;;4965109;28;20054;-83
2023/03/31 10:57:54;;;;;;;4.00;1.40;;;19.80;68.80;;;;;;4946394;29;20032;-82
2023/03/31 11:00:33;;;;;;;2.28;1.58;;;19.80;68.80;;;;;;4960436;28;20055;-85
2023/03/31 11:03:09;;;;;;;2.97;1.13;;;19.80;68.70;;;;;;4961108;28;20036;-83
2023/03/31 11:05:52;;;;;;;4.63;1.48;;;19.80;68.80;;;;;;4933292;29;20040;-85
2023/03/31 11:09:09;;;;;;;5.60;2.30;;;19.60;68.40;;;;;;4939298;29;20038;-84
2023/03/31 11:11:50;;;;;;;2.95;1.13;;;19.60;68.50;;;;;;4939611;28;20359;-84
2023/03/31 11:14:41;;;;;;;4.57;1.92;;;19.50;68.70;;;;;;4949864;28;20495;-86
2023/03/31 11:17:23;;;;;;;2.63;1.13;;;19.50;68.60;;;;;;4950853;28;20179;-85
2023/03/31 11:20:06;;;;;;;3.67;1.35;;;19.60;68.60;;;;;;4944259;28;20143;-85
2023/03/31 11:22:57;;;;;;;4.45;1.30;;;19.60;68.40;;;;;;4931913;29;20148;-82
2023/03/31 11:25:31;;;;;;;3.28;1.55;;;19.70;68.30;;;;;;4959954;28;20036;-85
2023/03/31 11:28:33;;;;;;;3.50;1.50;;;19.80;68.40;;;;;;4947169;29;20517;-85
2023/03/31 11:31:09;;;;;;;3.80;1.25;;;20.00;68.20;;;;;;4957875;28;20059;-85
2023/03/31 11:33:44;;;;;;;4.10;1.38;;;20.20;68.20;;;;;;4958046;28;20179;-80
2023/03/31 11:36:24;;;;;;;3.17;1.45;;;20.40;68.10;;;;;;4929045;29;20050;-84
2023/03/31 11:39:14;;;;;;;5.05;2.00;;;20.70;67.80;;;;;;4928098;29;20039;-83
2023/03/31 11:41:50;;;;;;;7.32;2.17;;;20.80;67.90;;;;;;4931216;29;20604;-85
2023/03/31 11:44:18;;;;;;;3.78;1.52;;;20.90;67.10;;;;;;4935138;29;20039;-85
2023/03/31 11:47:07;;;;;;;6.53;2.17;;;20.90;67.00;;;;;;4940145;28;20509;-85
2023/03/31 11:49:38;;;;;;;3.55;1.17;;;20.70;66.60;;;;;;4982368;28;20043;-86
2023/03/31 11:52:16;;;;;;;3.53;1.40;;;20.50;66.70;;;;;;4967584;28;20558;-86
2023/03/31 11:55:26;;;;;;;3.40;1.70;;;20.30;66.70;;;;;;4981903;28;20434;-84
2023/03/31 11:58:03;;;;;;;6.15;2.22;;;20.20;66.80;;;;;;4968325;28;20053;-86
2023/03/31 12:00:50;;;;;;;6.70;1.52;;;20.10;67.00;;;;;;4967479;28;20038;-86
2023/03/31 12:03:42;;;;;;;5.43;2.13;;;20.00;66.80;;;;;;4950955;28;20035;-87
2023/03/31 12:06:18;;;;;;;5.07;2.00;;;20.00;66.60;;;;;;4965270;28;20461;-83
2023/03/31 12:09:08;;;;;;;4.72;1.50;;;20.00;66.70;;;;;;4962164;28;20034;-83
2023/03/31 12:11:43;;;;;;;3.53;1.73;;;20.00;66.60;;;;;;4963336;28;20137;-83
2023/03/31 12:14:28;;;;;;;6.47;1.85;;;20.10;66.70;;;;;;4967954;28;20100;-84
2023/03/31 12:17:00;;;;;;;6.63;2.17;;;20.20;66.60;;;;;;4961712;28;20023;-84
2023/03/31 12:19:28;;;;;;;;;;;20.40;66.50;;;;;;4982736;28;20026;-85
2023/03/31 12:22:04;;;;;;;5.47;1.67;;;20.40;66.20;;;;;;4965236;28;19957;-83
2023/03/31 12:24:32;;;;;;;4.78;1.77;;;20.50;66.20;;;;;;4971901;28;20095;-83
2023/03/31 12:27:13;;;;;;;5.05;1.80;;;20.40;66.00;;;;;;4963331;28;20037;-84
2023/03/31 12:29:47;;;;;;;5.18;1.52;;;20.50;66.10;;;;;;4967295;28;20034;-83
2023/03/31 12:32:22;;;;;;;8.32;2.20;;;20.50;66.10;;;;;;4974314;28;20039;-83
2023/03/31 12:35:01;;;;;;;4.80;1.88;;;20.70;66.10;;;;;;4964494;28;20446;-83
2023/03/31 12:37:51;;;;;;;4.75;1.92;;;20.90;65.90;;;;;;4972782;28;20035;-82
2023/03/31 12:40:33;;;;;;;4.63;1.30;;;21.10;65.70;;;;;;4964183;28;20037;-79
2023/03/31 12:43:20;;;;;;;3.72;1.63;;;21.30;65.50;;;;;;4952290;28;20535;-86
2023/03/31 12:46:00;;;;;;;7.55;2.50;;;21.40;65.50;;;;;;4965450;28;20134;-86
2023/03/31 12:48:48;;;;;;;4.47;1.90;;;21.50;65.30;;;;;;4961139;28;20055;-87
2023/03/31 12:52:02;;;;;;;5.32;1.20;;;21.50;65.10;;;;;;4966433;28;20034;-81
2023/03/31 12:54:30;;;;;;;;;;;21.60;64.80;;;;;;4965863;28;20122;-82
2023/03/31 12:57:03;;;;;;;5.72;1.70;;;21.70;65.20;;;;;;4966758;28;19918;-82
2023/03/31 12:59:37;;;;;;;8.95;2.00;;;21.70;65.10;;;;;;4981480;28;20019;-83
2023/03/31 13:02:18;;;;;;;4.25;1.45;;;21.70;64.80;;;;;;4988057;28;20041;-85
2023/03/31 13:04:44;;;;;;;3.47;1.33;;;21.80;64.80;;;;;;4990110;28;20031;-85
2023/03/31 13:07:34;;;;;;;6.43;2.00;;;21.80;64.70;;;;;;4988177;28;20616;-86
2023/03/31 13:10:15;;;;;;;3.65;1.02;;;21.90;64.20;;;;;;4975048;28;20047;-87
2023/03/31 13:13:11;;;;;;;2.70;1.05;;;22.00;64.20;;;;;;4977344;28;20107;-87
2023/03/31 13:15:40;;;;;;;4.13;1.75;;;22.10;64.10;;;;;;4979834;28;20089;-84
2023/03/31 13:18:06;;;;;;;3.55;1.35;;;22.10;64.00;;;;;;4968647;28;20042;-87
2023/03/31 13:20:37;;;;;;;3.90;1.52;;;22.20;63.90;;;;;;4966006;28;20081;-88